Otisco, New York
Current Conditions -  °F | °C
As of 9:15 PM on Thursday 18 Dec 2014 (Local Time) from KN03 Reporting Station
Light Snow Light Snow  
Wind Chill: 30°   Ceiling: 1400
Heat Index: 30°   Visibility: 3mi
Dew Point: 30°   Wind: 3mph
Humidity: 100%   Direction: 280°W
Pressure: 29.98"   Gusts: NA
Location:  42.8002°N, 76.1123°W
Report Text: KN03 190215Z AUTO 28003KT 3SM -SN OVC014 M01/M01 A2998 RMK AO2
Loading
Personal Weather Stations






























Interactive Weather Map New forecast layout! Learn more

10-Day Weather Forecast

Advertisements
Track Severe Weather on mobile